createdAt,value
2018-07-30T00:00:13.755Z,12.87
2018-07-30T00:02:48.838Z,10.87
2018-07-30T00:05:23.006Z,17.40
2018-07-30T00:07:59.009Z,13.13
2018-07-30T00:10:33.283Z,12.03
2018-07-30T00:13:07.880Z,12.50
2018-07-30T00:15:42.129Z,14.77
2018-07-30T00:18:16.403Z,14.30
2018-07-30T00:20:50.477Z,13.43
2018-07-30T00:23:25.121Z,13.80
2018-07-30T00:25:59.786Z,12.10
2018-07-30T00:28:34.378Z,11.43
2018-07-30T00:31:09.357Z,23.83
2018-07-30T00:33:43.925Z,13.60
2018-07-30T00:36:18.945Z,11.00
2018-07-30T00:38:53.261Z,12.40
2018-07-30T00:41:28.024Z,12.67
2018-07-30T00:44:03.023Z,11.57
2018-07-30T00:46:37.810Z,11.63
2018-07-30T00:49:12.430Z,14.53
2018-07-30T00:51:47.035Z,13.97
2018-07-30T00:54:21.784Z,15.13
2018-07-30T00:56:56.480Z,13.57
2018-07-30T00:59:31.188Z,12.50
2018-07-30T01:02:06.020Z,13.00
2018-07-30T01:04:40.697Z,12.80
2018-07-30T01:07:15.599Z,13.03
2018-07-30T01:09:50.468Z,13.17
2018-07-30T01:12:25.363Z,14.17
2018-07-30T01:15:00.190Z,18.60
2018-07-30T01:17:35.024Z,20.50
2018-07-30T01:20:10.024Z,12.93
2018-07-30T01:22:44.773Z,14.20
2018-07-30T01:25:19.682Z,14.80
2018-07-30T01:27:53.903Z,14.60
2018-07-30T01:30:28.663Z,14.07
2018-07-30T01:33:03.204Z,12.47
2018-07-30T01:35:37.794Z,15.70
2018-07-30T01:38:13.440Z,14.17
2018-07-30T01:40:48.101Z,13.30
2018-07-30T01:43:22.833Z,14.17
2018-07-30T01:45:57.787Z,14.40
2018-07-30T01:48:32.373Z,15.40
2018-07-30T01:51:07.376Z,17.67
2018-07-30T01:53:41.861Z,17.93
2018-07-30T01:56:16.594Z,14.00
2018-07-30T01:58:51.449Z,12.97
2018-07-30T02:01:26.036Z,12.10
2018-07-30T02:04:00.990Z,12.20
2018-07-30T02:06:35.984Z,11.00
2018-07-30T02:09:10.677Z,13.50
2018-07-30T02:11:44.914Z,10.90
2018-07-30T02:14:19.584Z,12.30
2018-07-30T02:16:54.240Z,13.97
2018-07-30T02:19:28.990Z,11.83
2018-07-30T02:22:03.836Z,13.17
2018-07-30T02:24:38.515Z,11.73
2018-07-30T02:27:13.579Z,13.93
2018-07-30T02:29:48.170Z,11.83
2018-07-30T02:32:22.381Z,13.17
2018-07-30T02:34:56.942Z,14.03
2018-07-30T02:37:32.139Z,10.90
2018-07-30T02:40:07.261Z,12.73
2018-07-30T02:42:41.797Z,12.37
2018-07-30T02:45:15.972Z,14.43
2018-07-30T02:47:50.536Z,14.57
2018-07-30T02:50:25.303Z,14.37
2018-07-30T02:52:59.896Z,13.70
2018-07-30T02:55:34.522Z,14.27
2018-07-30T02:58:16.494Z,14.17
2018-07-30T03:00:51.546Z,11.80
2018-07-30T03:03:26.298Z,12.83
2018-07-30T03:06:01.021Z,14.47
2018-07-30T03:08:35.765Z,13.40
2018-07-30T03:11:10.480Z,14.90
2018-07-30T03:13:45.546Z,12.13
2018-07-30T03:16:19.701Z,13.57
2018-07-30T03:18:54.309Z,11.10
2018-07-30T03:21:29.925Z,12.83
2018-07-30T03:24:04.984Z,12.40
2018-07-30T03:26:39.456Z,12.60
2018-07-30T03:29:14.064Z,15.53
2018-07-30T03:31:48.993Z,11.57
2018-07-30T03:34:23.703Z,11.10
2018-07-30T03:36:58.945Z,13.00
2018-07-30T03:39:33.288Z,17.23
2018-07-30T03:42:07.605Z,10.70
2018-07-30T03:44:42.355Z,14.63
2018-07-30T03:47:17.252Z,10.60
2018-07-30T03:49:52.276Z,11.27
2018-07-30T03:52:27.111Z,10.60
2018-07-30T03:55:01.482Z,14.00
2018-07-30T03:57:36.417Z,11.27
2018-07-30T04:00:12.619Z,11.73
2018-07-30T04:02:46.941Z,12.20
2018-07-30T04:05:21.513Z,18.63
2018-07-30T04:07:56.425Z,15.77
2018-07-30T04:10:31.077Z,16.30
2018-07-30T04:13:06.016Z,14.17
2018-07-30T04:15:40.691Z,12.20
2018-07-30T04:18:15.478Z,11.27
2018-07-30T04:20:50.153Z,19.73
2018-07-30T04:23:25.287Z,15.63
2018-07-30T04:25:59.593Z,13.33
2018-07-30T04:28:34.422Z,13.30
2018-07-30T04:31:09.057Z,16.37
2018-07-30T04:33:44.063Z,12.23
2018-07-30T04:36:18.921Z,11.83
2018-07-30T04:38:53.456Z,15.10
2018-07-30T04:41:28.569Z,12.90
2018-07-30T04:44:03.211Z,13.33
2018-07-30T04:46:37.936Z,10.90
2018-07-30T04:49:12.219Z,12.50
2018-07-30T04:51:46.280Z,11.23
2018-07-30T04:54:20.712Z,13.47
2018-07-30T04:56:54.911Z,12.03
2018-07-30T04:59:29.750Z,12.30
2018-07-30T05:02:03.907Z,10.43
2018-07-30T05:04:39.096Z,11.53
2018-07-30T05:07:14.364Z,13.03
2018-07-30T05:09:48.612Z,13.30
2018-07-30T05:12:23.646Z,9.77
2018-07-30T05:14:58.164Z,9.70
2018-07-30T05:17:32.825Z,10.07
2018-07-30T05:20:07.841Z,10.83
2018-07-30T05:22:42.214Z,10.60
2018-07-30T05:25:16.947Z,10.17
2018-07-30T05:27:51.655Z,11.70
2018-07-30T05:30:26.506Z,8.50
2018-07-30T05:33:00.945Z,10.73
2018-07-30T05:35:35.773Z,9.53
2018-07-30T05:38:10.393Z,12.27
2018-07-30T05:40:45.147Z,9.27
2018-07-30T05:43:19.880Z,8.80
2018-07-30T05:45:54.754Z,9.63
2018-07-30T05:48:29.607Z,8.50
2018-07-30T05:51:04.274Z,9.37
2018-07-30T05:53:39.030Z,9.83
2018-07-30T05:56:13.625Z,8.83
2018-07-30T05:58:48.576Z,8.73
2018-07-30T06:01:23.650Z,7.40
2018-07-30T06:03:58.394Z,7.67
2018-07-30T06:06:32.729Z,6.97
2018-07-30T06:09:09.130Z,6.33
2018-07-30T06:11:43.513Z,6.10
2018-07-30T06:14:17.904Z,6.37
2018-07-30T06:16:53.180Z,6.70
2018-07-30T06:19:28.034Z,5.90
2018-07-30T06:22:02.812Z,7.77
2018-07-30T06:24:37.794Z,7.80
2018-07-30T06:27:12.161Z,6.23
2018-07-30T06:29:47.037Z,6.53
2018-07-30T06:32:21.737Z,6.10
2018-07-30T06:34:56.452Z,7.47
2018-07-30T06:37:31.248Z,6.70
2018-07-30T06:40:06.053Z,6.23
2018-07-30T06:42:47.225Z,7.73
2018-07-30T06:45:21.349Z,6.17
2018-07-30T06:47:56.258Z,6.70
2018-07-30T06:50:31.148Z,7.20
2018-07-30T06:53:05.788Z,6.17
2018-07-30T06:55:40.377Z,5.60
2018-07-30T06:58:15.027Z,6.17
2018-07-30T07:00:49.911Z,7.07
2018-07-30T07:03:24.438Z,8.33
2018-07-30T07:05:59.209Z,6.37
2018-07-30T07:08:33.874Z,6.63
2018-07-30T07:11:08.306Z,6.10
2018-07-30T07:13:43.175Z,5.20
2018-07-30T07:16:17.603Z,6.30
2018-07-30T07:18:52.775Z,6.37
2018-07-30T07:21:28.067Z,6.70
2018-07-30T07:24:02.981Z,5.23
2018-07-30T07:26:37.453Z,7.40
2018-07-30T07:29:12.549Z,6.60
2018-07-30T07:31:47.513Z,8.37
2018-07-30T07:34:21.686Z,6.40
2018-07-30T07:36:56.212Z,6.17
2018-07-30T07:39:30.832Z,6.17
2018-07-30T07:42:05.647Z,5.50
2018-07-30T07:44:40.577Z,6.03
2018-07-30T07:47:15.184Z,5.60
2018-07-30T07:49:49.974Z,14.83
2018-07-30T07:52:24.653Z,6.63
2018-07-30T07:54:59.310Z,7.53
2018-07-30T07:57:33.608Z,5.60
2018-07-30T08:00:09.968Z,7.50
2018-07-30T08:02:44.104Z,7.70
2018-07-30T08:05:18.812Z,6.40
2018-07-30T08:07:53.737Z,5.93
2018-07-30T08:10:28.414Z,8.40
2018-07-30T08:13:03.226Z,8.20
2018-07-30T08:15:38.084Z,5.60
2018-07-30T08:18:12.888Z,5.33
2018-07-30T08:20:47.584Z,5.27
2018-07-30T08:23:22.293Z,7.10
2018-07-30T08:25:57.642Z,6.60
2018-07-30T08:28:32.819Z,6.47
2018-07-30T08:31:07.813Z,6.40
2018-07-30T08:33:42.037Z,14.20
2018-07-30T08:36:16.300Z,16.03
2018-07-30T08:38:50.782Z,6.37
2018-07-30T08:41:24.960Z,5.47
2018-07-30T08:43:59.746Z,6.40
2018-07-30T08:46:34.434Z,7.40
2018-07-30T08:49:09.343Z,5.80
2018-07-30T08:51:43.955Z,11.23
2018-07-30T08:54:18.818Z,5.90
2018-07-30T08:56:53.481Z,6.40
2018-07-30T08:59:28.157Z,5.80
2018-07-30T09:02:03.476Z,6.77
2018-07-30T09:04:38.416Z,5.23
2018-07-30T09:07:13.174Z,4.93
2018-07-30T09:09:47.848Z,6.70
2018-07-30T09:12:22.922Z,4.87
2018-07-30T09:14:57.255Z,6.43
2018-07-30T09:17:31.817Z,5.50
2018-07-30T09:20:06.641Z,5.90
2018-07-30T09:22:41.194Z,4.50
2018-07-30T09:25:16.071Z,5.03
2018-07-30T09:27:50.868Z,6.17
2018-07-30T09:30:25.697Z,7.00
2018-07-30T09:33:00.734Z,9.77
2018-07-30T09:35:35.118Z,6.37
2018-07-30T09:38:10.206Z,6.13
2018-07-30T09:40:44.467Z,5.57
2018-07-30T09:43:18.801Z,5.33
2018-07-30T09:45:53.308Z,6.00
2018-07-30T09:48:27.517Z,7.53
2018-07-30T09:51:02.262Z,4.87
2018-07-30T09:53:36.433Z,5.70
2018-07-30T09:56:10.954Z,6.10
2018-07-30T09:58:45.435Z,9.70
2018-07-30T10:01:25.741Z,4.60
2018-07-30T10:04:00.914Z,4.73
2018-07-30T10:06:35.106Z,6.87
2018-07-30T10:09:11.292Z,5.70
2018-07-30T10:11:45.426Z,5.60
2018-07-30T10:14:20.349Z,6.13
2018-07-30T10:16:55.534Z,6.23
2018-07-30T10:19:30.458Z,7.00
2018-07-30T10:22:05.496Z,8.43
2018-07-30T10:24:39.956Z,6.90
2018-07-30T10:27:14.721Z,5.50
2018-07-30T10:29:49.489Z,6.07
2018-07-30T10:32:24.120Z,6.53
2018-07-30T10:34:58.811Z,5.90
2018-07-30T10:37:33.454Z,5.57
2018-07-30T10:40:08.197Z,6.60
2018-07-30T10:42:43.241Z,5.57
2018-07-30T10:45:17.757Z,10.23
2018-07-30T10:47:52.651Z,5.57
2018-07-30T10:50:26.816Z,6.43
2018-07-30T10:53:01.994Z,6.70
2018-07-30T10:55:36.474Z,9.17
2018-07-30T10:58:11.904Z,7.20
2018-07-30T11:00:46.773Z,6.40
2018-07-30T11:03:22.173Z,5.87
2018-07-30T11:05:57.165Z,5.57
2018-07-30T11:08:31.734Z,5.30
2018-07-30T11:11:06.933Z,5.70
2018-07-30T11:13:41.367Z,5.30
2018-07-30T11:16:16.200Z,5.50
2018-07-30T11:18:50.911Z,6.63
2018-07-30T11:21:25.678Z,4.97
2018-07-30T11:24:01.094Z,5.00
2018-07-30T11:26:35.995Z,4.93
2018-07-30T11:29:10.771Z,5.03
2018-07-30T11:31:45.600Z,7.97
2018-07-30T11:34:19.942Z,7.97
2018-07-30T11:36:54.653Z,5.77
2018-07-30T11:39:29.500Z,7.30
2018-07-30T11:42:03.987Z,6.20
2018-07-30T11:44:38.661Z,5.13
2018-07-30T11:47:13.318Z,5.53
2018-07-30T11:49:48.185Z,9.63
2018-07-30T11:52:22.805Z,7.10
2018-07-30T11:54:57.546Z,5.37
2018-07-30T11:57:32.359Z,6.80
2018-07-30T12:00:07.325Z,6.30
2018-07-30T12:02:42.426Z,5.30
2018-07-30T12:05:16.528Z,6.27
2018-07-30T12:07:51.481Z,6.90
2018-07-30T12:10:25.618Z,8.70
2018-07-30T12:13:00.372Z,5.50
2018-07-30T12:15:34.948Z,6.90
2018-07-30T12:18:09.141Z,6.13
2018-07-30T12:20:43.810Z,8.00
2018-07-30T12:23:18.467Z,6.80
2018-07-30T12:25:53.034Z,9.67
2018-07-30T12:28:27.515Z,6.80
2018-07-30T12:31:02.176Z,7.37
2018-07-30T12:33:36.942Z,6.33
2018-07-30T12:36:11.905Z,6.17
2018-07-30T12:38:46.227Z,5.33
2018-07-30T12:41:20.884Z,6.90
2018-07-30T12:43:55.497Z,6.23
2018-07-30T12:46:30.100Z,10.60
2018-07-30T12:49:05.286Z,6.53
2018-07-30T12:51:39.905Z,5.63
2018-07-30T12:54:14.208Z,6.30
2018-07-30T12:56:50.018Z,6.10
2018-07-30T12:59:24.516Z,5.43
2018-07-30T13:01:59.317Z,5.20
2018-07-30T13:04:34.094Z,6.90
2018-07-30T13:07:09.233Z,6.13
2018-07-30T13:09:44.029Z,6.80
2018-07-30T13:12:18.112Z,6.23
2018-07-30T13:14:52.295Z,5.90
2018-07-30T13:17:26.961Z,6.13
2018-07-30T13:20:01.037Z,7.23
2018-07-30T13:22:35.677Z,7.10
2018-07-30T13:25:09.832Z,6.30
2018-07-30T13:27:44.892Z,5.93
2018-07-30T13:30:19.784Z,8.17
2018-07-30T13:32:54.699Z,5.90
2018-07-30T13:35:28.988Z,7.20
2018-07-30T13:38:04.178Z,5.80
2018-07-30T13:40:38.750Z,6.33
2018-07-30T13:43:13.159Z,5.70
2018-07-30T13:45:47.981Z,5.87
2018-07-30T13:48:22.637Z,12.03
2018-07-30T13:50:57.345Z,6.83
2018-07-30T13:53:32.036Z,6.80
2018-07-30T13:56:06.993Z,6.60
2018-07-30T13:58:41.548Z,5.83
2018-07-30T14:01:16.571Z,5.50
2018-07-30T14:03:51.655Z,6.53
2018-07-30T14:06:25.998Z,9.43
2018-07-30T14:09:00.788Z,10.10
2018-07-30T14:11:35.201Z,5.50
2018-07-30T14:14:10.354Z,6.37
2018-07-30T14:16:44.659Z,6.13
2018-07-30T14:19:19.585Z,6.60
2018-07-30T14:21:54.504Z,7.17
2018-07-30T14:24:29.213Z,8.23
2018-07-30T14:27:03.572Z,12.17
2018-07-30T14:29:38.028Z,11.40
2018-07-30T14:32:13.398Z,11.90
2018-07-30T14:34:48.433Z,8.40
2018-07-30T14:37:22.682Z,6.73
2018-07-30T14:39:57.852Z,6.63
2018-07-30T14:42:32.629Z,9.33
2018-07-30T14:45:07.408Z,6.73
2018-07-30T14:47:42.157Z,5.60
2018-07-30T14:50:17.182Z,5.77
2018-07-30T14:52:51.412Z,6.83
2018-07-30T14:55:26.029Z,22.43
2018-07-30T14:58:00.672Z,6.80
2018-07-30T15:00:35.588Z,5.67
2018-07-30T15:03:09.846Z,6.03
2018-07-30T15:05:44.531Z,6.80
2018-07-30T15:08:19.194Z,6.00
2018-07-30T15:10:53.948Z,6.00
2018-07-30T15:13:28.796Z,8.00
2018-07-30T15:16:03.373Z,7.73
2018-07-30T15:18:38.128Z,6.93
2018-07-30T15:21:13.128Z,6.43
2018-07-30T15:23:47.483Z,5.10
2018-07-30T15:26:22.311Z,7.30
2018-07-30T15:28:56.924Z,8.43
2018-07-30T15:31:31.879Z,6.40
2018-07-30T15:34:06.582Z,6.87
2018-07-30T15:36:40.861Z,7.20
2018-07-30T15:39:15.158Z,6.73
2018-07-30T15:41:50.060Z,14.53
2018-07-30T15:44:24.851Z,6.23
2018-07-30T15:46:59.900Z,8.50
2018-07-30T15:49:34.108Z,5.70
2018-07-30T15:52:08.218Z,5.77
2018-07-30T15:54:43.021Z,7.73
2018-07-30T15:57:17.420Z,5.67
2018-07-30T15:59:52.256Z,15.70
2018-07-30T16:02:27.009Z,5.87
2018-07-30T16:07:36.496Z,6.10
2018-07-30T16:10:11.310Z,6.57
2018-07-30T16:12:45.798Z,7.37
2018-07-30T16:15:20.786Z,8.90
2018-07-30T16:17:55.246Z,7.43
2018-07-30T16:20:29.805Z,6.77
2018-07-30T16:23:04.815Z,5.80
2018-07-30T16:25:39.432Z,7.23
2018-07-30T16:28:13.760Z,6.90
2018-07-30T16:30:48.498Z,6.23
2018-07-30T16:33:23.566Z,7.27
2018-07-30T16:35:57.957Z,10.40
2018-07-30T16:38:32.634Z,6.40
2018-07-30T16:41:07.259Z,10.53
2018-07-30T16:43:42.146Z,8.07
2018-07-30T16:46:17.237Z,5.27
2018-07-30T16:48:51.576Z,6.73
2018-07-30T16:51:26.284Z,7.10
2018-07-30T16:54:00.988Z,8.07
2018-07-30T16:56:35.638Z,8.67
2018-07-30T16:59:10.327Z,7.03
2018-07-30T17:01:44.717Z,5.60
2018-07-30T17:04:20.008Z,5.67
2018-07-30T17:06:54.174Z,5.07
2018-07-30T17:09:28.798Z,8.63
2018-07-30T17:12:03.734Z,9.40
2018-07-30T17:14:38.312Z,8.30
2018-07-30T17:17:12.889Z,6.23
2018-07-30T17:19:47.605Z,5.50
2018-07-30T17:22:22.263Z,5.53
2018-07-30T17:24:56.913Z,6.30
2018-07-30T17:27:31.501Z,13.13
2018-07-30T17:30:06.976Z,8.90
2018-07-30T17:32:42.139Z,5.80
2018-07-30T17:35:17.134Z,8.23
2018-07-30T17:37:51.943Z,14.03
2018-07-30T17:40:26.724Z,6.53
2018-07-30T17:43:01.601Z,6.43
2018-07-30T17:45:36.395Z,10.63
2018-07-30T17:48:10.948Z,5.70
2018-07-30T17:50:45.669Z,12.13
2018-07-30T17:53:20.521Z,5.63
2018-07-30T17:55:55.296Z,5.47
2018-07-30T17:58:30.128Z,7.17
2018-07-30T18:01:04.335Z,7.10
2018-07-30T18:03:38.713Z,6.83
2018-07-30T18:06:13.792Z,5.97
2018-07-30T18:08:48.338Z,7.20
2018-07-30T18:11:22.697Z,13.70
2018-07-30T18:13:56.920Z,11.30
2018-07-30T18:16:31.799Z,8.07
2018-07-30T18:19:06.680Z,5.43
2018-07-30T18:21:41.090Z,9.00
2018-07-30T18:24:15.733Z,8.43
2018-07-30T18:26:50.604Z,7.47
2018-07-30T18:29:25.436Z,7.70
2018-07-30T18:32:00.232Z,7.20
2018-07-30T18:34:34.773Z,8.50
2018-07-30T18:37:09.625Z,10.33
2018-07-30T18:39:44.119Z,7.70
2018-07-30T18:42:18.825Z,10.57
2018-07-30T18:44:53.783Z,10.50
2018-07-30T18:47:28.400Z,11.00
2018-07-30T18:50:03.189Z,10.13
2018-07-30T18:52:37.728Z,14.87
2018-07-30T18:55:12.466Z,9.80
2018-07-30T18:57:47.353Z,9.60
2018-07-30T19:00:21.827Z,12.60
2018-07-30T19:02:56.656Z,10.80
2018-07-30T19:05:31.265Z,10.80
2018-07-30T19:08:06.645Z,10.93
2018-07-30T19:10:41.292Z,11.57
2018-07-30T19:13:15.392Z,9.93
2018-07-30T19:15:49.736Z,9.93
2018-07-30T19:18:24.768Z,9.93
2018-07-30T19:20:59.066Z,8.40
2018-07-30T19:23:33.170Z,11.60
2018-07-30T19:26:07.354Z,9.70
2018-07-30T19:28:42.084Z,11.00
2018-07-30T19:31:17.458Z,12.40
2018-07-30T19:33:52.663Z,8.67
2018-07-30T19:36:27.563Z,10.17
2018-07-30T19:39:02.221Z,12.50
2018-07-30T19:41:37.443Z,11.33
2018-07-30T19:44:11.745Z,11.13
2018-07-30T19:46:46.228Z,8.60
2018-07-30T19:49:21.075Z,10.40
2018-07-30T19:51:55.590Z,8.37
2018-07-30T19:54:30.030Z,10.20
2018-07-30T19:57:05.398Z,11.10
2018-07-30T19:59:39.581Z,13.20
2018-07-30T20:02:14.137Z,13.70
2018-07-30T20:04:48.911Z,13.10
2018-07-30T20:07:23.501Z,12.70
2018-07-30T20:09:58.355Z,12.00
2018-07-30T20:12:33.032Z,13.20
2018-07-30T20:15:07.929Z,12.43
2018-07-30T20:17:42.594Z,12.77
2018-07-30T20:20:17.324Z,17.60
2018-07-30T20:22:51.912Z,14.53
2018-07-30T20:25:26.136Z,15.33
2018-07-30T20:28:00.828Z,12.73
2018-07-30T20:30:35.894Z,15.90
2018-07-30T20:33:10.593Z,15.10
2018-07-30T20:35:45.734Z,12.77
2018-07-30T20:38:20.460Z,19.83
2018-07-30T20:40:55.145Z,14.50
2018-07-30T20:43:29.904Z,15.43
2018-07-30T20:46:04.840Z,14.80
2018-07-30T20:48:39.138Z,13.17
2018-07-30T20:51:13.815Z,15.07
2018-07-30T20:53:48.523Z,13.57
2018-07-30T20:56:23.166Z,15.33
2018-07-30T20:58:58.007Z,15.93
2018-07-30T21:01:32.564Z,20.03
2018-07-30T21:04:07.392Z,17.80
2018-07-30T21:06:42.247Z,18.50
2018-07-30T21:09:16.620Z,19.23
2018-07-30T21:11:51.482Z,14.80
2018-07-30T21:14:26.259Z,23.87
2018-07-30T21:17:00.978Z,17.83
2018-07-30T21:19:35.718Z,13.93
2018-07-30T21:22:10.461Z,13.03
2018-07-30T21:24:45.107Z,16.50
2018-07-30T21:27:20.091Z,19.83
2018-07-30T21:29:54.958Z,17.47
2018-07-30T21:32:29.911Z,17.87
2018-07-30T21:35:04.668Z,19.57
2018-07-30T21:37:39.789Z,17.03
2018-07-30T21:40:14.422Z,16.17
2018-07-30T21:42:48.873Z,14.40
2018-07-30T21:45:23.512Z,12.50
2018-07-30T21:47:57.628Z,12.63
2018-07-30T21:50:32.357Z,14.33
2018-07-30T21:53:07.766Z,13.40
2018-07-30T21:55:41.878Z,14.53
2018-07-30T21:58:16.482Z,11.90
2018-07-30T22:00:55.465Z,13.60
2018-07-30T22:03:30.334Z,13.83
2018-07-30T22:06:04.930Z,18.40
2018-07-30T22:08:39.504Z,15.13
2018-07-30T22:11:14.228Z,12.80
2018-07-30T22:13:48.981Z,13.83
2018-07-30T22:16:23.528Z,13.97
2018-07-30T22:18:58.200Z,15.97
2018-07-30T22:21:32.846Z,17.67
2018-07-30T22:24:07.486Z,16.67
2018-07-30T22:26:42.357Z,12.50
2018-07-30T22:29:17.259Z,11.93
2018-07-30T22:31:52.187Z,18.07
2018-07-30T22:34:26.560Z,14.80
2018-07-30T22:37:01.379Z,13.80
2018-07-30T22:39:36.517Z,15.00
2018-07-30T22:42:10.761Z,15.43
2018-07-30T22:44:45.030Z,14.27
2018-07-30T22:47:19.675Z,14.33
2018-07-30T22:49:54.018Z,13.97
2018-07-30T22:52:28.801Z,13.40
2018-07-30T22:55:03.926Z,12.40
2018-07-30T22:57:38.476Z,16.40
2018-07-30T23:00:13.276Z,13.70
2018-07-30T23:02:47.752Z,18.93
2018-07-30T23:05:22.549Z,14.90
2018-07-30T23:07:57.636Z,15.97
2018-07-30T23:10:32.041Z,14.83
2018-07-30T23:13:07.006Z,13.50
2018-07-30T23:15:41.356Z,12.57
2018-07-30T23:18:16.025Z,13.30
2018-07-30T23:20:50.684Z,13.30
2018-07-30T23:23:25.376Z,13.97
2018-07-30T23:25:59.997Z,15.60
2018-07-30T23:28:34.750Z,16.77
2018-07-30T23:31:09.677Z,13.00
2018-07-30T23:33:44.296Z,12.70
2018-07-30T23:36:19.092Z,13.03
2018-07-30T23:38:53.865Z,15.83
2018-07-30T23:41:28.848Z,16.40
2018-07-30T23:44:03.580Z,17.93
2018-07-30T23:46:38.107Z,12.33
2018-07-30T23:49:13.012Z,13.07
2018-07-30T23:51:47.745Z,12.20
2018-07-30T23:54:22.384Z,10.80
2018-07-30T23:56:56.689Z,11.37
2018-07-30T23:59:30.824Z,13.17
